• Join FlightAware (Why Join?)
  • Login
  • US Flag 
07:29AM EDT


 

Airport Tracker/Info


-or-


 

Live Flight TrackerFlight Track Log ✈ SWA118 ✈ 23-May-2013 ✈ KHOU - KMDW

Flight Track Log - Related Links

Times and Time Zones

All times are in EDT time to prevent confusion due to time zone crossing. See the SWA118 flight status page for this flight to view local times or setup timezone preferences in your user account.

Time Position Orientation Groundspeed Altitude Reporting Facility
EDT Latitude Longitude Course Direction KTS MPH feet Rate Location/Type
03:30PM 29.6314 -95.2919 123° Southeast 175 201 900  Level Houston Center
03:31PM 29.6064 -95.2469 123° Southeast 252 290 3,300 2,160 Climbing Houston Center
03:32PM 29.6300 -95.2367 21° North 261 300 4,400 2,640 Climbing Houston Center
03:32PM 29.6792 -95.2406 356° North 287 330 6,000 2,580 Climbing Houston Center
03:33PM 29.7100 -95.2442 354° North 278 320 7,100 2,940 Climbing Houston Center
03:33PM 29.7578 -95.2503 354° North 288 331 9,000 2,700 Climbing Houston Center
03:34PM 29.7914 -95.2544 354° North 288 331 9,900 2,580 Climbing Houston Center
03:35PM 29.8761 -95.2683 352° North 302 348 12,900 2,220 Climbing Houston Center
03:36PM 29.9633 -95.2633 North 324 373 14,600 1,980 Climbing Houston Center
03:37PM 30.0892 -95.2372 10° North 382 440 17,100 2,220 Climbing Houston Center
03:38PM 30.1958 -95.2150 10° North 390 449 19,200 2,040 Climbing Houston Center
03:39PM 30.3089 -95.1914 10° North 408 470 21,400 1,980 Climbing Houston Center
03:40PM 30.4219 -95.1672 10° North 415 478 23,300 1,620 Climbing Houston Center
03:41PM 30.5381 -95.1072 24° Northeast 440 506 24,800 1,500 Climbing Houston Center
03:42PM 30.6469 -95.0381 29° Northeast 446 513 26,400 1,560 Climbing Houston Center
03:43PM 30.7586 -94.9694 28° Northeast 451 519 28,100 1,500 Climbing Houston Center
03:44PM 30.8967 -94.8836 28° Northeast 466 536 29,600 1,500 Climbing Houston Center
03:45PM 31.0092 -94.8125 28° Northeast 463 533 31,200 1,380 Climbing Houston Center
03:46PM 31.1197 -94.7433 28° Northeast 457 526 32,500 1,020 Climbing Houston Center
03:47PM 31.2303 -94.6719 29° Northeast 469 540 33,400 960 Climbing Houston Center
03:48PM 31.3608 -94.5786 31° Northeast 471 542 34,500 720 Climbing Houston Center
03:49PM 31.4725 -94.5028 30° Northeast 470 541 35,000 240 Climbing Houston Center
03:50PM 31.5833 -94.4253 31° Northeast 466 536 35,000  Level Houston Center
03:51PM 31.6950 -94.3469 31° Northeast 466 536 35,000  Level Houston Center
03:52PM 31.7986 -94.2572 36° Northeast 466 536 35,000  Level Houston Center
03:53PM 31.8983 -94.1075 52° Northeast 479 551 35,000  Level Houston Center
03:54PM 31.9328 -94.0572 51° Northeast 466 536 35,000  Level Fort Worth Center
03:55PM 32.0128 -93.9319 53° Northeast 471 542 35,000  Level Fort Worth Center
03:55PM 32.0628 -93.8614 50° Northeast 477 549 35,000  Level Houston Center
03:57PM 32.1444 -93.7389 52° Northeast 477 549 35,000  Level Houston Center
03:57PM 32.1872 -93.6797 49° Northeast 478 550 35,000  Level Fort Worth Center
03:58PM 32.2847 -93.5850 39° Northeast 462 532 35,000  Level Fort Worth Center
03:59PM 32.3861 -93.4944 37° Northeast 457 526 35,000  Level Fort Worth Center
04:00PM 32.4878 -93.4089 35° Northeast 450 518 35,000  Level Fort Worth Center
04:01PM 32.5917 -93.3278 33° Northeast 445 512 35,000  Level Fort Worth Center
04:02PM 32.7047 -93.2708 23° Northeast 432 497 35,000  Level Fort Worth Center
04:03PM 32.8175 -93.2089 25° Northeast 432 497 35,000 240 Level Fort Worth Center
04:04PM 32.9303 -93.1492 24° Northeast 439 505 35,500 540 Climbing Fort Worth Center
04:05PM 33.0469 -93.0839 25° Northeast 445 512 36,100 420 Climbing Fort Worth Center
04:07PM 33.2942 -92.9519 24° Northeast 469 540 37,000 240 Climbing Memphis Center
04:08PM 33.4083 -92.8881 25° Northeast 457 526 37,000  Level Memphis Center
04:09PM 33.5244 -92.8242 25° Northeast 452 520 37,000  Level Memphis Center
04:10PM 33.6383 -92.7650 23° Northeast 447 514 37,000  Level Memphis Center
04:11PM 33.7542 -92.7008 25° Northeast 447 514 37,000  Level Memphis Center
04:12PM 33.8661 -92.6386 25° Northeast 447 514 37,000  Level Memphis Center
04:13PM 33.9797 -92.5767 24° Northeast 447 514 37,000  Level Memphis Center
04:14PM 34.0789 -92.5164 27° Northeast 447 514 37,000  Level Memphis Center
04:15PM 34.1950 -92.4514 25° Northeast 441 507 37,000  Level Memphis Center
04:16PM 34.3106 -92.3889 24° Northeast 447 514 37,000  Level Memphis Center
04:17PM 34.4244 -92.3211 26° Northeast 447 514 37,000  Level Memphis Center
04:18PM 34.5381 -92.2606 24° Northeast 447 514 37,000  Level Memphis Center
04:19PM 34.6497 -92.1925 27° Northeast 447 514 37,000  Level Memphis Center
04:20PM 34.7608 -92.1469 19° North 436 502 37,000  Level Memphis Center
04:21PM 34.8764 -92.1036 17° North 431 496 37,000  Level Memphis Center
04:22PM 34.9917 -92.0581 18° North 426 490 37,000  Level Memphis Center
04:23PM 35.1069 -92.0172 16° North 426 490 37,000  Level Memphis Center
04:24PM 35.2222 -91.9711 18° North 426 490 37,000  Level Memphis Center
04:25PM 35.3375 -91.9250 18° North 426 490 37,000  Level Memphis Center
04:26PM 35.4550 -91.8786 18° North 431 496 37,000  Level Memphis Center
04:27PM 35.5681 -91.8347 18° North 431 496 37,000  Level Memphis Center
04:28PM 35.6856 -91.7908 17° North 431 496 37,000  Level Memphis Center
04:29PM 35.7986 -91.7467 18° North 426 490 37,000  Level Memphis Center
04:30PM 35.9139 -91.6975 19° North 426 490 37,000  Level Memphis Center
04:31PM 36.0206 -91.6556 18° North 418 481 37,000  Level Memphis Center
04:32PM 36.1378 -91.6111 17° North 418 481 37,000  Level Memphis Center
04:33PM 36.2508 -91.5667 18° North 425 489 37,000  Level Memphis Center
04:34PM 36.3658 -91.5219 17° North 430 495 37,000  Level Memphis Center
04:35PM 36.4956 -91.4719 17° North 429 494 37,000  Level Memphis Center
04:36PM 36.6106 -91.4219 19° North 434 499 37,000  Level Memphis Center
04:38PM 36.8489 -91.3242 18° North 439 505 37,000  Level Kansas City Center
04:39PM 36.9642 -91.2767 18° North 437 503 37,000  Level Kansas City Center
04:40PM 37.0797 -91.2306 18° North 436 502 37,000  Level Kansas City Center
04:41PM 37.1978 -91.1811 18° North 441 507 37,000  Level Kansas City Center
04:42PM 37.3131 -91.1317 19° North 439 505 37,000  Level Kansas City Center
04:43PM 37.4522 -91.0767 17° North 436 502 37,000  Level Kansas City Center
04:44PM 37.5667 -91.0289 18° North 435 501 37,000  Level Kansas City Center
04:45PM 37.6864 -90.9811 18° North 430 495 37,000  Level Kansas City Center
04:46PM 37.8033 -90.9606 North 423 487 37,000  Level Kansas City Center
04:47PM 37.9183 -90.9400 North 420 483 37,000  Level Kansas City Center
04:48PM 38.0347 -90.9203 North 419 482 37,000  Level Kansas City Center
04:49PM 38.1508 -90.9028 North 420 483 37,000  Level Kansas City Center
04:51PM 38.2669 -90.8828 North 420 483 37,000  Level Kansas City Center
04:52PM 38.3839 -90.8489 13° North 431 496 37,000  Level Kansas City Center
04:53PM 38.5219 -90.7878 19° North 434 499 37,000 -180 Level Kansas City Center
04:54PM 38.6383 -90.7367 19° North 438 504 36,700 -660 Descending Kansas City Center
04:55PM 38.7533 -90.6842 20° North 435 501 35,700 -840 Descending Kansas City Center
04:56PM 38.8775 -90.6297 19° North 425 489 35,000 -360 Descending Kansas City Center
04:57PM 38.9778 -90.5847 19° North 421 484 35,000 -480 Level Kansas City Center
04:58PM 39.0864 -90.5336 20° North 416 479 34,100 -960 Descending Kansas City Center
04:59PM 39.1950 -90.4844 19° North 413 475 33,100 -1,020 Descending Kansas City Center
05:00PM 39.3033 -90.4356 19° North 413 475 32,100 -1,020 Descending Kansas City Center
05:01PM 39.4319 -90.3761 20° North 411 473 31,000 -540 Descending Kansas City Center
05:02PM 39.5383 -90.3281 19° North 407 468 31,000  Level Kansas City Center
05:03PM 39.6467 -90.2778 20° North 412 474 31,000  Level Kansas City Center
05:04PM 39.7569 -90.2258 20° North 416 479 31,000  Level Kansas City Center
05:05PM 39.8664 -90.1744 20° North 418 481 31,000  Level Kansas City Center
05:06PM 39.9761 -90.1250 19° North 418 481 31,000  Level Kansas City Center
05:07PM 40.1061 -90.0639 20° North 415 478 31,000  Level Kansas City Center
05:08PM 40.2156 -90.0125 20° North 418 481 31,000 -420 Level Kansas City Center
05:09PM 40.3228 -89.9619 20° North 416 479 30,100 -1,200 Descending Chicago Center
05:10PM 40.4425 -89.9058 20° North 384 442 28,400 -1,680 Descending Chicago Center
05:11PM 40.5350 -89.8617 20° North 378 435 26,700 -1,800 Descending Chicago Center
05:12PM 40.6289 -89.8161 20° North 365 420 24,800 -1,800 Descending Chicago Center
05:13PM 40.7053 -89.7311 40° Northeast 382 440 23,100 -1,860 Descending Chicago Center
05:14PM 40.7672 -89.5883 60° Northeast 378 435 21,000 -1,860 Descending Chicago Center
05:15PM 40.8200 -89.4703 59° Northeast 374 430 19,300 -1,560 Descending Chicago Center
05:16PM 40.8678 -89.3583 61° Northeast 357 411 17,800 -1,140 Descending Chicago Center
05:18PM 40.9150 -89.2475 61° Northeast 345 397 17,000 -540 Descending Chicago Center
05:19PM 40.9622 -89.1364 61° Northeast 345 397 16,700 -1,020 Descending Chicago Center
05:20PM 41.0133 -89.0144 61° Northeast 328 377 14,900 -1,680 Descending Chicago Center
05:21PM 41.0569 -88.9128 60° Northeast 320 368 13,300 -1,500 Descending Chicago Center
05:22PM 41.0975 -88.8144 61° Northeast 310 357 11,800 -1,500 Descending Chicago Center
05:23PM 41.1378 -88.7183 61° Northeast 301 346 10,300 -1,200 Descending Chicago Center
05:24PM 41.1750 -88.6283 61° Northeast 284 327 9,400 -1,020 Descending Chicago Center
05:25PM 41.2186 -88.5264 60° Northeast 267 307 8,300 -1,020 Descending Chicago Center
05:26PM 41.2744 -88.4753 35° Northeast 253 291 7,300 -660 Descending Chicago Center
05:27PM 41.3369 -88.4381 24° Northeast 247 284 7,000 -540 Descending Chicago Center
05:28PM 41.3981 -88.4036 23° Northeast 239 275 6,300 -540 Descending Chicago Center
05:29PM 41.4600 -88.3667 24° Northeast 240 276 6,000 -180 Descending Chicago Center
05:30PM 41.4908 -88.2900 62° Northeast 245 282 6,000 -240 Level Chicago Center
05:31PM 41.5161 -88.1847 72° East 246 283 5,600 -840 Descending Chicago Center
05:32PM 41.5364 -88.1006 72° East 240 276 4,300 -780 Descending Chicago Center
05:33PM 41.5667 -88.0292 60° Northeast 226 260 4,000 -180 Descending Chicago Center
05:34PM 41.6047 -87.9767 46° Northeast 209 241 4,000  Level Chicago Center
05:35PM 41.6458 -87.9289 41° Northeast 200 230 4,000 -300 Level Chicago Center
05:36PM 41.6825 -87.8822 44° Northeast 192 221 3,400 -720 Descending Chicago Center
05:37PM 41.7119 -87.8450 43° Northeast 169 194 2,500 -840 Descending Chicago Center
05:38PM 41.7442 -87.8039 44° Northeast 147 169 1,700 -780 Descending Chicago Center
05:39PM 41.7694 -87.7714 44° Northeast 135 155 900 -780 Descending Chicago Center
05:41PM 41.7833 -87.7500 43° Northeast  Level FlightAware Approximate